sensor_id;sensor_type;location;lat;lon;timestamp;temperature;humidity
7214;DHT22;3648;50.614;13.830;2023-04-15T00:02:21;7.30;99.90
7214;DHT22;3648;50.614;13.830;2023-04-15T00:04:48;7.30;99.90
7214;DHT22;3648;50.614;13.830;2023-04-15T00:07:16;7.30;99.90
7214;DHT22;3648;50.614;13.830;2023-04-15T00:09:43;7.30;99.90
7214;DHT22;3648;50.614;13.830;2023-04-15T00:12:10;7.30;99.90
7214;DHT22;3648;50.614;13.830;2023-04-15T00:14:38;7.30;99.90
7214;DHT22;3648;50.614;13.830;2023-04-15T00:17:05;7.30;99.90
7214;DHT22;3648;50.614;13.830;2023-04-15T00:19:33;7.30;99.90
7214;DHT22;3648;50.614;13.830;2023-04-15T00:22:00;7.30;99.90
7214;DHT22;3648;50.614;13.830;2023-04-15T00:24:32;7.20;99.90
7214;DHT22;3648;50.614;13.830;2023-04-15T00:26:59;7.20;99.90
7214;DHT22;3648;50.614;13.830;2023-04-15T00:29:26;7.20;99.90
7214;DHT22;3648;50.614;13.830;2023-04-15T00:31:53;7.30;99.90
7214;DHT22;3648;50.614;13.830;2023-04-15T00:34:20;7.30;99.90
7214;DHT22;3648;50.614;13.830;2023-04-15T00:36:47;7.20;99.90
7214;DHT22;3648;50.614;13.830;2023-04-15T00:39:14;7.30;99.90
7214;DHT22;3648;50.614;13.830;2023-04-15T00:41:43;7.30;99.90
7214;DHT22;3648;50.614;13.830;2023-04-15T00:44:11;7.30;99.90
7214;DHT22;3648;50.614;13.830;2023-04-15T00:46:38;7.30;99.90
7214;DHT22;3648;50.614;13.830;2023-04-15T00:49:06;7.40;99.90
7214;DHT22;3648;50.614;13.830;2023-04-15T00:51:33;7.40;99.90
7214;DHT22;3648;50.614;13.830;2023-04-15T00:54:02;7.40;99.90
7214;DHT22;3648;50.614;13.830;2023-04-15T00:56:29;7.40;99.90
7214;DHT22;3648;50.614;13.830;2023-04-15T00:58:58;7.40;99.90
7214;DHT22;3648;50.614;13.830;2023-04-15T01:01:25;7.40;99.90
7214;DHT22;3648;50.614;13.830;2023-04-15T01:03:55;7.40;99.90
7214;DHT22;3648;50.614;13.830;2023-04-15T01:06:23;7.40;99.90
7214;DHT22;3648;50.614;13.830;2023-04-15T01:08:52;7.40;99.90
7214;DHT22;3648;50.614;13.830;2023-04-15T01:11:19;7.40;99.90
7214;DHT22;3648;50.614;13.830;2023-04-15T01:13:46;7.30;99.90
7214;DHT22;3648;50.614;13.830;2023-04-15T01:16:15;7.40;99.90
7214;DHT22;3648;50.614;13.830;2023-04-15T01:18:42;7.40;99.90
7214;DHT22;3648;50.614;13.830;2023-04-15T01:21:09;7.40;99.90
7214;DHT22;3648;50.614;13.830;2023-04-15T01:23:37;7.30;99.90
7214;DHT22;3648;50.614;13.830;2023-04-15T01:26:06;7.30;99.90
7214;DHT22;3648;50.614;13.830;2023-04-15T01:28:33;7.30;99.90
7214;DHT22;3648;50.614;13.830;2023-04-15T01:31:07;7.30;99.90
7214;DHT22;3648;50.614;13.830;2023-04-15T01:33:35;7.40;99.90
7214;DHT22;3648;50.614;13.830;2023-04-15T01:36:03;7.30;99.90
7214;DHT22;3648;50.614;13.830;2023-04-15T01:38:31;7.30;99.90
7214;DHT22;3648;50.614;13.830;2023-04-15T01:40:58;7.30;99.90
7214;DHT22;3648;50.614;13.830;2023-04-15T01:43:27;7.30;99.90
7214;DHT22;3648;50.614;13.830;2023-04-15T01:45:54;7.30;99.90
7214;DHT22;3648;50.614;13.830;2023-04-15T01:48:21;7.30;99.90
7214;DHT22;3648;50.614;13.830;2023-04-15T01:50:48;7.30;99.90
7214;DHT22;3648;50.614;13.830;2023-04-15T01:53:16;7.30;99.90
7214;DHT22;3648;50.614;13.830;2023-04-15T01:55:43;7.30;99.90
7214;DHT22;3648;50.614;13.830;2023-04-15T01:58:10;7.20;99.90
7214;DHT22;3648;50.614;13.830;2023-04-15T02:00:39;7.20;99.90
7214;DHT22;3648;50.614;13.830;2023-04-15T02:03:06;7.20;99.90
7214;DHT22;3648;50.614;13.830;2023-04-15T02:05:33;7.20;99.90
7214;DHT22;3648;50.614;13.830;2023-04-15T02:08:00;7.20;99.90
7214;DHT22;3648;50.614;13.830;2023-04-15T02:10:27;7.20;99.90
7214;DHT22;3648;50.614;13.830;2023-04-15T02:12:54;7.20;99.90
7214;DHT22;3648;50.614;13.830;2023-04-15T02:15:21;7.20;99.90
7214;DHT22;3648;50.614;13.830;2023-04-15T02:17:49;7.20;99.90
7214;DHT22;3648;50.614;13.830;2023-04-15T02:20:18;7.20;99.90
7214;DHT22;3648;50.614;13.830;2023-04-15T02:22:45;7.20;99.90
7214;DHT22;3648;50.614;13.830;2023-04-15T02:25:12;7.20;99.90
7214;DHT22;3648;50.614;13.830;2023-04-15T02:27:41;7.20;99.90
7214;DHT22;3648;50.614;13.830;2023-04-15T02:30:08;7.20;99.90
7214;DHT22;3648;50.614;13.830;2023-04-15T02:32:35;7.20;99.90
7214;DHT22;3648;50.614;13.830;2023-04-15T02:35:05;7.30;99.90
7214;DHT22;3648;50.614;13.830;2023-04-15T02:37:35;7.30;99.90
7214;DHT22;3648;50.614;13.830;2023-04-15T02:40:07;7.30;99.90
7214;DHT22;3648;50.614;13.830;2023-04-15T02:42:36;7.30;99.90
7214;DHT22;3648;50.614;13.830;2023-04-15T02:45:04;7.30;99.90
7214;DHT22;3648;50.614;13.830;2023-04-15T02:47:31;7.30;99.90
7214;DHT22;3648;50.614;13.830;2023-04-15T02:49:58;7.30;99.90
7214;DHT22;3648;50.614;13.830;2023-04-15T02:52:28;7.30;99.90
7214;DHT22;3648;50.614;13.830;2023-04-15T02:54:55;7.40;99.90
7214;DHT22;3648;50.614;13.830;2023-04-15T02:57:25;7.40;99.90
7214;DHT22;3648;50.614;13.830;2023-04-15T02:59:54;7.40;99.90
7214;DHT22;3648;50.614;13.830;2023-04-15T03:02:21;7.40;99.90
7214;DHT22;3648;50.614;13.830;2023-04-15T03:04:48;7.40;99.90
7214;DHT22;3648;50.614;13.830;2023-04-15T03:07:16;7.40;99.90
7214;DHT22;3648;50.614;13.830;2023-04-15T03:09:45;7.40;99.90
7214;DHT22;3648;50.614;13.830;2023-04-15T03:12:12;7.40;99.90
7214;DHT22;3648;50.614;13.830;2023-04-15T03:14:39;7.40;99.90
7214;DHT22;3648;50.614;13.830;2023-04-15T03:17:06;7.40;99.90
7214;DHT22;3648;50.614;13.830;2023-04-15T03:19:33;7.40;99.90
7214;DHT22;3648;50.614;13.830;2023-04-15T03:22:00;7.40;99.90
7214;DHT22;3648;50.614;13.830;2023-04-15T03:24:27;7.40;99.90
7214;DHT22;3648;50.614;13.830;2023-04-15T03:26:56;7.40;99.90
7214;DHT22;3648;50.614;13.830;2023-04-15T03:29:23;7.40;99.90
7214;DHT22;3648;50.614;13.830;2023-04-15T03:31:51;7.40;99.90
7214;DHT22;3648;50.614;13.830;2023-04-15T03:34:20;7.40;99.90
7214;DHT22;3648;50.614;13.830;2023-04-15T03:36:47;7.40;99.90
7214;DHT22;3648;50.614;13.830;2023-04-15T03:39:14;7.40;99.90
7214;DHT22;3648;50.614;13.830;2023-04-15T03:41:41;7.30;99.90
7214;DHT22;3648;50.614;13.830;2023-04-15T03:44:09;7.40;99.90
7214;DHT22;3648;50.614;13.830;2023-04-15T03:46:36;7.30;99.90
7214;DHT22;3648;50.614;13.830;2023-04-15T03:49:05;7.40;99.90
7214;DHT22;3648;50.614;13.830;2023-04-15T03:51:32;7.40;99.90
7214;DHT22;3648;50.614;13.830;2023-04-15T03:53:59;7.40;99.90
7214;DHT22;3648;50.614;13.830;2023-04-15T03:56:26;7.40;99.90
7214;DHT22;3648;50.614;13.830;2023-04-15T03:58:53;7.30;1.00
7214;DHT22;3648;50.614;13.830;2023-04-15T04:01:22;7.20;1.00
7214;DHT22;3648;50.614;13.830;2023-04-15T04:03:49;7.00;1.00
7214;DHT22;3648;50.614;13.830;2023-04-15T04:06:16;6.90;1.00
7214;DHT22;3648;50.614;13.830;2023-04-15T04:08:42;6.90;1.00
7214;DHT22;3648;50.614;13.830;2023-04-15T04:11:09;6.80;1.00
7214;DHT22;3648;50.614;13.830;2023-04-15T04:13:36;6.80;1.00
7214;DHT22;3648;50.614;13.830;2023-04-15T04:16:04;6.80;1.00
7214;DHT22;3648;50.614;13.830;2023-04-15T04:18:33;6.80;1.00
7214;DHT22;3648;50.614;13.830;2023-04-15T04:21:00;6.80;1.00
7214;DHT22;3648;50.614;13.830;2023-04-15T04:23:27;6.80;1.00
7214;DHT22;3648;50.614;13.830;2023-04-15T04:25:54;6.90;1.00
7214;DHT22;3648;50.614;13.830;2023-04-15T04:28:21;6.90;1.00
7214;DHT22;3648;50.614;13.830;2023-04-15T04:30:48;6.90;1.00
7214;DHT22;3648;50.614;13.830;2023-04-15T04:33:15;6.80;1.00
7214;DHT22;3648;50.614;13.830;2023-04-15T04:35:43;6.90;1.00
7214;DHT22;3648;50.614;13.830;2023-04-15T04:38:10;6.90;1.00
7214;DHT22;3648;50.614;13.830;2023-04-15T04:40:37;7.00;1.00
7214;DHT22;3648;50.614;13.830;2023-04-15T04:43:04;7.00;1.00
7214;DHT22;3648;50.614;13.830;2023-04-15T04:45:31;7.00;1.00
7214;DHT22;3648;50.614;13.830;2023-04-15T04:47:58;7.00;1.00
7214;DHT22;3648;50.614;13.830;2023-04-15T04:50:25;7.10;1.00
7214;DHT22;3648;50.614;13.830;2023-04-15T04:52:54;7.10;1.00
7214;DHT22;3648;50.614;13.830;2023-04-15T04:55:21;7.10;1.00
7214;DHT22;3648;50.614;13.830;2023-04-15T04:57:48;7.10;1.00
7214;DHT22;3648;50.614;13.830;2023-04-15T05:00:15;7.10;1.00
7214;DHT22;3648;50.614;13.830;2023-04-15T05:02:42;7.10;1.00
7214;DHT22;3648;50.614;13.830;2023-04-15T05:05:10;7.00;1.00
7214;DHT22;3648;50.614;13.830;2023-04-15T05:07:38;7.10;1.00
7214;DHT22;3648;50.614;13.830;2023-04-15T05:10:08;7.10;1.00
7214;DHT22;3648;50.614;13.830;2023-04-15T05:12:36;7.10;1.00
7214;DHT22;3648;50.614;13.830;2023-04-15T05:15:04;7.00;1.00
7214;DHT22;3648;50.614;13.830;2023-04-15T05:17:31;7.00;1.00
7214;DHT22;3648;50.614;13.830;2023-04-15T05:20:00;7.00;1.00
7214;DHT22;3648;50.614;13.830;2023-04-15T05:22:27;7.00;1.00
7214;DHT22;3648;50.614;13.830;2023-04-15T05:24:54;6.90;1.00
7214;DHT22;3648;50.614;13.830;2023-04-15T05:27:23;6.90;1.00
7214;DHT22;3648;50.614;13.830;2023-04-15T05:29:50;6.90;1.00
7214;DHT22;3648;50.614;13.830;2023-04-15T05:32:17;7.00;1.00
7214;DHT22;3648;50.614;13.830;2023-04-15T05:34:44;7.00;1.00
7214;DHT22;3648;50.614;13.830;2023-04-15T05:37:11;7.00;1.00
7214;DHT22;3648;50.614;13.830;2023-04-15T05:39:38;7.00;1.00
7214;DHT22;3648;50.614;13.830;2023-04-15T05:42:05;7.00;1.00
7214;DHT22;3648;50.614;13.830;2023-04-15T05:44:34;7.00;1.00
7214;DHT22;3648;50.614;13.830;2023-04-15T05:47:01;7.10;1.00
7214;DHT22;3648;50.614;13.830;2023-04-15T05:49:30;7.10;1.00
7214;DHT22;3648;50.614;13.830;2023-04-15T05:51:57;7.10;1.00
7214;DHT22;3648;50.614;13.830;2023-04-15T05:54:24;7.10;1.00
7214;DHT22;3648;50.614;13.830;2023-04-15T05:56:52;7.00;1.00
7214;DHT22;3648;50.614;13.830;2023-04-15T05:59:19;7.00;1.00
7214;DHT22;3648;50.614;13.830;2023-04-15T06:01:48;7.00;1.00
7214;DHT22;3648;50.614;13.830;2023-04-15T06:04:16;7.00;1.00
7214;DHT22;3648;50.614;13.830;2023-04-15T06:06:43;7.10;1.00
7214;DHT22;3648;50.614;13.830;2023-04-15T06:09:10;7.10;1.00
7214;DHT22;3648;50.614;13.830;2023-04-15T06:11:38;7.10;1.00
7214;DHT22;3648;50.614;13.830;2023-04-15T06:14:06;7.10;1.00
7214;DHT22;3648;50.614;13.830;2023-04-15T06:16:33;7.10;1.00
7214;DHT22;3648;50.614;13.830;2023-04-15T06:19:02;7.10;1.00
7214;DHT22;3648;50.614;13.830;2023-04-15T06:21:29;7.10;1.00
7214;DHT22;3648;50.614;13.830;2023-04-15T06:23:59;6.90;1.00
7214;DHT22;3648;50.614;13.830;2023-04-15T06:26:28;6.80;1.00
7214;DHT22;3648;50.614;13.830;2023-04-15T06:28:56;6.60;1.00
7214;DHT22;3648;50.614;13.830;2023-04-15T06:31:23;6.50;1.00
7214;DHT22;3648;50.614;13.830;2023-04-15T06:33:50;6.40;1.00
7214;DHT22;3648;50.614;13.830;2023-04-15T06:36:19;6.30;1.00
7214;DHT22;3648;50.614;13.830;2023-04-15T06:38:46;6.20;1.00
7214;DHT22;3648;50.614;13.830;2023-04-15T06:41:13;6.10;1.00
7214;DHT22;3648;50.614;13.830;2023-04-15T06:43:40;6.10;1.00
7214;DHT22;3648;50.614;13.830;2023-04-15T06:46:07;6.10;1.00
7214;DHT22;3648;50.614;13.830;2023-04-15T06:48:35;6.10;1.00
7214;DHT22;3648;50.614;13.830;2023-04-15T06:51:02;6.00;1.00
7214;DHT22;3648;50.614;13.830;2023-04-15T06:53:31;5.90;1.00
7214;DHT22;3648;50.614;13.830;2023-04-15T06:55:58;5.90;1.00
7214;DHT22;3648;50.614;13.830;2023-04-15T06:58:25;5.80;1.00
7214;DHT22;3648;50.614;13.830;2023-04-15T07:00:52;5.90;1.00
7214;DHT22;3648;50.614;13.830;2023-04-15T07:03:19;5.80;1.00
7214;DHT22;3648;50.614;13.830;2023-04-15T07:05:46;5.90;1.00
7214;DHT22;3648;50.614;13.830;2023-04-15T07:08:13;5.90;1.00
7214;DHT22;3648;50.614;13.830;2023-04-15T07:10:42;5.90;1.00
7214;DHT22;3648;50.614;13.830;2023-04-15T07:13:09;5.90;1.00
7214;DHT22;3648;50.614;13.830;2023-04-15T07:15:36;5.90;1.00
7214;DHT22;3648;50.614;13.830;2023-04-15T07:18:03;5.90;1.00
7214;DHT22;3648;50.614;13.830;2023-04-15T07:20:30;6.00;1.00
7214;DHT22;3648;50.614;13.830;2023-04-15T07:22:57;6.00;1.00
7214;DHT22;3648;50.614;13.830;2023-04-15T07:25:24;6.10;1.00
7214;DHT22;3648;50.614;13.830;2023-04-15T07:27:53;6.10;1.00
7214;DHT22;3648;50.614;13.830;2023-04-15T07:30:20;6.10;1.00
7214;DHT22;3648;50.614;13.830;2023-04-15T07:32:47;6.10;1.00
7214;DHT22;3648;50.614;13.830;2023-04-15T07:35:14;6.20;1.00
7214;DHT22;3648;50.614;13.830;2023-04-15T07:37:41;6.20;1.00
7214;DHT22;3648;50.614;13.830;2023-04-15T07:40:09;6.30;1.00
7214;DHT22;3648;50.614;13.830;2023-04-15T07:42:36;6.30;1.00
7214;DHT22;3648;50.614;13.830;2023-04-15T07:45:06;6.30;1.00
7214;DHT22;3648;50.614;13.830;2023-04-15T07:47:33;6.40;1.00
7214;DHT22;3648;50.614;13.830;2023-04-15T07:50:00;6.40;1.00
7214;DHT22;3648;50.614;13.830;2023-04-15T07:52:27;6.40;1.00
7214;DHT22;3648;50.614;13.830;2023-04-15T07:54:54;6.40;1.00
7214;DHT22;3648;50.614;13.830;2023-04-15T07:57:21;6.40;1.00
7214;DHT22;3648;50.614;13.830;2023-04-15T07:59:48;6.40;1.00
7214;DHT22;3648;50.614;13.830;2023-04-15T08:02:17;6.40;1.00
7214;DHT22;3648;50.614;13.830;2023-04-15T08:04:44;6.40;1.00
7214;DHT22;3648;50.614;13.830;2023-04-15T08:07:11;6.40;1.00
7214;DHT22;3648;50.614;13.830;2023-04-15T08:09:38;6.30;1.00
7214;DHT22;3648;50.614;13.830;2023-04-15T08:12:05;6.30;1.00
7214;DHT22;3648;50.614;13.830;2023-04-15T08:14:34;6.30;1.00
7214;DHT22;3648;50.614;13.830;2023-04-15T08:17:01;6.30;1.00
7214;DHT22;3648;50.614;13.830;2023-04-15T08:19:30;6.30;1.00
7214;DHT22;3648;50.614;13.830;2023-04-15T08:21:57;6.40;1.00
7214;DHT22;3648;50.614;13.830;2023-04-15T08:24:25;6.40;1.00
7214;DHT22;3648;50.614;13.830;2023-04-15T08:26:52;6.50;1.00
7214;DHT22;3648;50.614;13.830;2023-04-15T08:29:19;6.50;1.00
7214;DHT22;3648;50.614;13.830;2023-04-15T08:31:46;6.60;1.00
7214;DHT22;3648;50.614;13.830;2023-04-15T08:34:13;6.60;1.00
7214;DHT22;3648;50.614;13.830;2023-04-15T08:36:41;6.70;1.00
7214;DHT22;3648;50.614;13.830;2023-04-15T08:39:08;6.80;1.00
7214;DHT22;3648;50.614;13.830;2023-04-15T08:41:45;6.90;1.00
7214;DHT22;3648;50.614;13.830;2023-04-15T08:44:13;6.90;1.00
7214;DHT22;3648;50.614;13.830;2023-04-15T08:46:41;7.00;1.00
7214;DHT22;3648;50.614;13.830;2023-04-15T08:49:10;7.00;1.00
7214;DHT22;3648;50.614;13.830;2023-04-15T08:51:38;7.10;1.00
7214;DHT22;3648;50.614;13.830;2023-04-15T08:54:08;7.10;1.00
7214;DHT22;3648;50.614;13.830;2023-04-15T08:56:37;7.20;1.00
7214;DHT22;3648;50.614;13.830;2023-04-15T08:59:06;7.30;1.00
7214;DHT22;3648;50.614;13.830;2023-04-15T09:01:33;7.30;1.00
7214;DHT22;3648;50.614;13.830;2023-04-15T09:04:02;7.20;1.00
7214;DHT22;3648;50.614;13.830;2023-04-15T09:06:31;7.20;1.00
7214;DHT22;3648;50.614;13.830;2023-04-15T09:08:58;7.20;1.00
7214;DHT22;3648;50.614;13.830;2023-04-15T09:11:26;7.20;1.00
7214;DHT22;3648;50.614;13.830;2023-04-15T09:13:55;7.10;1.00
7214;DHT22;3648;50.614;13.830;2023-04-15T09:16:22;7.10;1.00
7214;DHT22;3648;50.614;13.830;2023-04-15T09:18:49;7.10;1.00
7214;DHT22;3648;50.614;13.830;2023-04-15T09:21:17;7.00;1.00
7214;DHT22;3648;50.614;13.830;2023-04-15T09:23:55;7.00;1.00
7214;DHT22;3648;50.614;13.830;2023-04-15T09:26:32;7.00;1.00
7214;DHT22;3648;50.614;13.830;2023-04-15T09:29:05;6.90;1.00
7214;DHT22;3648;50.614;13.830;2023-04-15T09:31:33;6.90;1.00
7214;DHT22;3648;50.614;13.830;2023-04-15T09:34:01;6.90;99.90
7214;DHT22;3648;50.614;13.830;2023-04-15T09:36:28;6.90;1.00
7214;DHT22;3648;50.614;13.830;2023-04-15T09:38:56;7.00;1.00
7214;DHT22;3648;50.614;13.830;2023-04-15T09:41:24;7.00;1.00
7214;DHT22;3648;50.614;13.830;2023-04-15T09:43:52;7.00;1.00
7214;DHT22;3648;50.614;13.830;2023-04-15T09:46:20;7.10;1.00
7214;DHT22;3648;50.614;13.830;2023-04-15T09:49:10;7.10;99.90
7214;DHT22;3648;50.614;13.830;2023-04-15T09:51:38;7.20;99.90
7214;DHT22;3648;50.614;13.830;2023-04-15T09:54:05;7.20;99.90
7214;DHT22;3648;50.614;13.830;2023-04-15T09:56:34;7.20;99.90
7214;DHT22;3648;50.614;13.830;2023-04-15T09:59:04;7.30;99.90
7214;DHT22;3648;50.614;13.830;2023-04-15T10:01:31;7.40;99.90
7214;DHT22;3648;50.614;13.830;2023-04-15T10:04:01;7.40;99.90
7214;DHT22;3648;50.614;13.830;2023-04-15T10:06:29;7.40;99.90
7214;DHT22;3648;50.614;13.830;2023-04-15T10:08:57;7.30;99.90
7214;DHT22;3648;50.614;13.830;2023-04-15T10:11:28;7.40;99.90
7214;DHT22;3648;50.614;13.830;2023-04-15T10:13:55;7.40;99.90
7214;DHT22;3648;50.614;13.830;2023-04-15T10:16:26;7.50;99.90
7214;DHT22;3648;50.614;13.830;2023-04-15T10:18:55;7.60;99.90
7214;DHT22;3648;50.614;13.830;2023-04-15T10:21:23;7.60;99.90
7214;DHT22;3648;50.614;13.830;2023-04-15T10:23:50;7.70;99.90
7214;DHT22;3648;50.614;13.830;2023-04-15T10:26:17;7.80;99.90
7214;DHT22;3648;50.614;13.830;2023-04-15T10:28:45;7.90;99.90
7214;DHT22;3648;50.614;13.830;2023-04-15T10:31:13;7.90;99.90
7214;DHT22;3648;50.614;13.830;2023-04-15T10:33:43;8.00;99.90
7214;DHT22;3648;50.614;13.830;2023-04-15T10:36:10;8.10;99.90
7214;DHT22;3648;50.614;13.830;2023-04-15T10:38:39;8.10;99.90
7214;DHT22;3648;50.614;13.830;2023-04-15T10:41:15;8.10;99.90
7214;DHT22;3648;50.614;13.830;2023-04-15T10:43:50;8.20;99.90
7214;DHT22;3648;50.614;13.830;2023-04-15T10:46:20;8.20;99.90
7214;DHT22;3648;50.614;13.830;2023-04-15T10:48:50;8.10;99.90
7214;DHT22;3648;50.614;13.830;2023-04-15T10:51:26;8.10;99.90
7214;DHT22;3648;50.614;13.830;2023-04-15T10:53:56;8.10;99.90
7214;DHT22;3648;50.614;13.830;2023-04-15T10:56:24;8.10;99.90
7214;DHT22;3648;50.614;13.830;2023-04-15T10:58:51;8.10;99.90
7214;DHT22;3648;50.614;13.830;2023-04-15T11:01:19;8.20;99.90
7214;DHT22;3648;50.614;13.830;2023-04-15T11:03:49;8.20;99.90
7214;DHT22;3648;50.614;13.830;2023-04-15T11:06:16;8.40;99.90
7214;DHT22;3648;50.614;13.830;2023-04-15T11:08:54;8.50;99.90
7214;DHT22;3648;50.614;13.830;2023-04-15T11:11:22;8.60;99.90
7214;DHT22;3648;50.614;13.830;2023-04-15T11:13:50;8.70;99.90
7214;DHT22;3648;50.614;13.830;2023-04-15T11:16:17;8.60;99.90
7214;DHT22;3648;50.614;13.830;2023-04-15T11:18:54;8.70;99.90
7214;DHT22;3648;50.614;13.830;2023-04-15T11:21:24;8.70;99.90
7214;DHT22;3648;50.614;13.830;2023-04-15T11:23:53;8.80;99.90
7214;DHT22;3648;50.614;13.830;2023-04-15T11:26:25;8.80;99.90
7214;DHT22;3648;50.614;13.830;2023-04-15T11:28:53;8.80;99.90
7214;DHT22;3648;50.614;13.830;2023-04-15T11:31:20;8.80;99.90
7214;DHT22;3648;50.614;13.830;2023-04-15T11:33:55;8.80;99.90
7214;DHT22;3648;50.614;13.830;2023-04-15T11:36:24;8.90;99.90
7214;DHT22;3648;50.614;13.830;2023-04-15T11:38:53;9.00;99.90
7214;DHT22;3648;50.614;13.830;2023-04-15T11:41:21;9.10;99.90
7214;DHT22;3648;50.614;13.830;2023-04-15T11:43:49;9.20;99.90
7214;DHT22;3648;50.614;13.830;2023-04-15T11:46:16;9.30;99.90
7214;DHT22;3648;50.614;13.830;2023-04-15T11:48:45;9.30;99.90
7214;DHT22;3648;50.614;13.830;2023-04-15T11:51:14;9.30;99.90
7214;DHT22;3648;50.614;13.830;2023-04-15T11:53:43;9.40;99.90
7214;DHT22;3648;50.614;13.830;2023-04-15T11:56:15;9.50;99.90
7214;DHT22;3648;50.614;13.830;2023-04-15T11:58:44;9.50;99.90
7214;DHT22;3648;50.614;13.830;2023-04-15T12:01:12;9.60;99.90
7214;DHT22;3648;50.614;13.830;2023-04-15T12:03:40;9.70;99.90
7214;DHT22;3648;50.614;13.830;2023-04-15T12:06:16;9.70;99.90
7214;DHT22;3648;50.614;13.830;2023-04-15T12:08:57;9.70;99.90
7214;DHT22;3648;50.614;13.830;2023-04-15T12:11:30;9.70;99.90
7214;DHT22;3648;50.614;13.830;2023-04-15T12:14:02;9.70;99.90
7214;DHT22;3648;50.614;13.830;2023-04-15T12:16:30;9.80;99.90
7214;DHT22;3648;50.614;13.830;2023-04-15T12:18:59;9.80;99.90
7214;DHT22;3648;50.614;13.830;2023-04-15T12:21:33;9.90;99.90
7214;DHT22;3648;50.614;13.830;2023-04-15T12:24:02;9.90;99.90
7214;DHT22;3648;50.614;13.830;2023-04-15T12:26:33;10.00;99.90
7214;DHT22;3648;50.614;13.830;2023-04-15T12:29:02;10.00;99.90
7214;DHT22;3648;50.614;13.830;2023-04-15T12:31:30;10.10;99.90
7214;DHT22;3648;50.614;13.830;2023-04-15T12:33:58;10.20;99.90
7214;DHT22;3648;50.614;13.830;2023-04-15T12:36:27;10.20;99.90
7214;DHT22;3648;50.614;13.830;2023-04-15T12:38:57;10.20;99.90
7214;DHT22;3648;50.614;13.830;2023-04-15T12:41:25;10.30;99.90
7214;DHT22;3648;50.614;13.830;2023-04-15T12:43:52;10.40;99.90
7214;DHT22;3648;50.614;13.830;2023-04-15T12:46:20;10.40;99.90
7214;DHT22;3648;50.614;13.830;2023-04-15T12:48:47;10.40;99.90
7214;DHT22;3648;50.614;13.830;2023-04-15T12:51:14;10.50;99.90
7214;DHT22;3648;50.614;13.830;2023-04-15T12:53:43;10.40;99.90
7214;DHT22;3648;50.614;13.830;2023-04-15T12:56:12;10.40;99.90
7214;DHT22;3648;50.614;13.830;2023-04-15T12:58:39;10.30;99.90
7214;DHT22;3648;50.614;13.830;2023-04-15T13:01:07;10.20;99.90
7214;DHT22;3648;50.614;13.830;2023-04-15T13:03:35;10.10;99.90
7214;DHT22;3648;50.614;13.830;2023-04-15T13:06:02;10.10;99.90
7214;DHT22;3648;50.614;13.830;2023-04-15T13:08:30;10.00;99.90
7214;DHT22;3648;50.614;13.830;2023-04-15T13:10:59;10.00;99.90
7214;DHT22;3648;50.614;13.830;2023-04-15T13:13:27;9.90;99.90
7214;DHT22;3648;50.614;13.830;2023-04-15T13:15:56;10.00;99.90
7214;DHT22;3648;50.614;13.830;2023-04-15T13:18:23;10.00;99.90
7214;DHT22;3648;50.614;13.830;2023-04-15T13:20:50;10.10;99.90
7214;DHT22;3648;50.614;13.830;2023-04-15T13:23:17;10.10;99.90
7214;DHT22;3648;50.614;13.830;2023-04-15T13:25:45;10.20;99.90
7214;DHT22;3648;50.614;13.830;2023-04-15T13:28:14;10.20;99.90
7214;DHT22;3648;50.614;13.830;2023-04-15T13:30:41;10.20;99.90
7214;DHT22;3648;50.614;13.830;2023-04-15T13:33:09;10.10;99.90
7214;DHT22;3648;50.614;13.830;2023-04-15T13:35:37;9.90;99.90
7214;DHT22;3648;50.614;13.830;2023-04-15T13:38:04;9.90;99.90
7214;DHT22;3648;50.614;13.830;2023-04-15T13:40:31;9.90;99.90
7214;DHT22;3648;50.614;13.830;2023-04-15T13:42:59;9.80;99.90
7214;DHT22;3648;50.614;13.830;2023-04-15T13:45:29;9.80;99.90
7214;DHT22;3648;50.614;13.830;2023-04-15T13:47:57;9.90;99.90
7214;DHT22;3648;50.614;13.830;2023-04-15T13:50:24;9.90;99.90
7214;DHT22;3648;50.614;13.830;2023-04-15T13:52:52;9.90;99.90
7214;DHT22;3648;50.614;13.830;2023-04-15T13:55:19;9.90;99.90
7214;DHT22;3648;50.614;13.830;2023-04-15T13:57:47;9.90;99.90
7214;DHT22;3648;50.614;13.830;2023-04-15T14:00:15;10.00;99.90
7214;DHT22;3648;50.614;13.830;2023-04-15T14:02:44;10.20;99.90
7214;DHT22;3648;50.614;13.830;2023-04-15T14:05:11;10.20;99.90
7214;DHT22;3648;50.614;13.830;2023-04-15T14:07:38;10.30;99.90
7214;DHT22;3648;50.614;13.830;2023-04-15T14:10:06;10.30;99.90
7214;DHT22;3648;50.614;13.830;2023-04-15T14:12:33;10.30;99.90
7214;DHT22;3648;50.614;13.830;2023-04-15T14:15:00;10.40;99.90
7214;DHT22;3648;50.614;13.830;2023-04-15T14:17:28;10.40;99.90
7214;DHT22;3648;50.614;13.830;2023-04-15T14:19:56;10.50;99.90
7214;DHT22;3648;50.614;13.830;2023-04-15T14:22:23;10.50;99.90
7214;DHT22;3648;50.614;13.830;2023-04-15T14:24:50;10.50;99.90
7214;DHT22;3648;50.614;13.830;2023-04-15T14:27:20;10.50;99.90
7214;DHT22;3648;50.614;13.830;2023-04-15T14:29:47;10.60;99.90
7214;DHT22;3648;50.614;13.830;2023-04-15T14:32:14;10.60;99.90
7214;DHT22;3648;50.614;13.830;2023-04-15T14:34:42;10.60;99.90
7214;DHT22;3648;50.614;13.830;2023-04-15T14:37:11;10.60;99.90
7214;DHT22;3648;50.614;13.830;2023-04-15T14:39:38;10.50;99.90
7214;DHT22;3648;50.614;13.830;2023-04-15T14:42:05;10.50;99.90
7214;DHT22;3648;50.614;13.830;2023-04-15T14:44:32;10.40;99.90
7214;DHT22;3648;50.614;13.830;2023-04-15T14:46:59;10.40;99.90
7214;DHT22;3648;50.614;13.830;2023-04-15T14:49:26;10.40;99.90
7214;DHT22;3648;50.614;13.830;2023-04-15T14:51:53;10.40;99.90
7214;DHT22;3648;50.614;13.830;2023-04-15T14:54:22;10.40;99.90
7214;DHT22;3648;50.614;13.830;2023-04-15T14:56:49;10.40;99.90
7214;DHT22;3648;50.614;13.830;2023-04-15T14:59:16;10.40;99.90
7214;DHT22;3648;50.614;13.830;2023-04-15T15:01:43;10.40;99.90
7214;DHT22;3648;50.614;13.830;2023-04-15T15:04:11;10.40;99.90
7214;DHT22;3648;50.614;13.830;2023-04-15T15:06:39;10.50;99.90
7214;DHT22;3648;50.614;13.830;2023-04-15T15:09:06;10.50;99.90
7214;DHT22;3648;50.614;13.830;2023-04-15T15:11:35;10.50;99.90
7214;DHT22;3648;50.614;13.830;2023-04-15T15:14:02;10.60;99.90
7214;DHT22;3648;50.614;13.830;2023-04-15T15:16:29;10.60;99.90
7214;DHT22;3648;50.614;13.830;2023-04-15T15:18:56;10.60;99.90
7214;DHT22;3648;50.614;13.830;2023-04-15T15:21:23;10.60;99.90
7214;DHT22;3648;50.614;13.830;2023-04-15T15:23:51;10.50;99.90
7214;DHT22;3648;50.614;13.830;2023-04-15T15:26:18;10.50;99.90
7214;DHT22;3648;50.614;13.830;2023-04-15T15:28:47;10.50;99.90
7214;DHT22;3648;50.614;13.830;2023-04-15T15:31:15;10.50;99.90
7214;DHT22;3648;50.614;13.830;2023-04-15T15:33:42;10.60;99.90
7214;DHT22;3648;50.614;13.830;2023-04-15T15:36:09;10.60;99.90
7214;DHT22;3648;50.614;13.830;2023-04-15T15:38:36;10.60;99.90
7214;DHT22;3648;50.614;13.830;2023-04-15T15:41:04;10.60;99.90
7214;DHT22;3648;50.614;13.830;2023-04-15T15:43:31;10.70;99.90
7214;DHT22;3648;50.614;13.830;2023-04-15T15:46:00;10.70;99.90
7214;DHT22;3648;50.614;13.830;2023-04-15T15:48:27;10.80;99.90
7214;DHT22;3648;50.614;13.830;2023-04-15T15:50:54;10.80;99.90
7214;DHT22;3648;50.614;13.830;2023-04-15T15:53:21;10.80;99.90
7214;DHT22;3648;50.614;13.830;2023-04-15T15:55:50;10.90;99.90
7214;DHT22;3648;50.614;13.830;2023-04-15T15:58:17;10.80;99.90
7214;DHT22;3648;50.614;13.830;2023-04-15T16:00:45;10.80;99.90
7214;DHT22;3648;50.614;13.830;2023-04-15T16:03:14;10.80;99.90
7214;DHT22;3648;50.614;13.830;2023-04-15T16:05:41;10.80;99.90
7214;DHT22;3648;50.614;13.830;2023-04-15T16:08:08;10.80;99.90
7214;DHT22;3648;50.614;13.830;2023-04-15T16:10:36;10.80;99.90